Time;durP1;ratioP1;P1;durP2;ratioP2;P2;SDS_P1;SDS_P2;PMS_P1;PMS_P2;Temp;Humidity;BMP_temperature;BMP_pressure;BME280_temperature;BME280_humidity;BME280_pressure;Samples;Min_cycle;Max_cycle;Signal;HPM_P1;HPM_P2
2021/12/18 00:00:45;;;;;;;9.52;7.18;;;;;;;;;;5063594;28;20032;-30
2021/12/18 00:03:11;;;;;;;8.35;7.13;;;;;;;;;;5062775;28;20028;-32
2021/12/18 00:05:36;;;;;;;10.52;7.80;;;;;;;;;;5063040;28;20123;-28
2021/12/18 00:08:02;;;;;;;9.23;7.20;;;;;;;;;;5063114;28;20062;-31
2021/12/18 00:10:29;;;;;;;9.80;7.57;;;;;;;;;;5062394;28;20059;-30
2021/12/18 00:12:55;;;;;;;9.15;7.30;;;;;;;;;;5062611;28;20035;-30
2021/12/18 00:15:20;;;;;;;7.80;6.80;;;;;;;;;;5062848;28;20024;-30
2021/12/18 00:17:46;;;;;;;8.00;6.95;;;;;;;;;;5062022;28;20059;-30
2021/12/18 00:20:14;;;;;;;8.25;7.03;;;;;;;;;;5062332;28;20036;-30
2021/12/18 00:22:39;;;;;;;9.15;7.20;;;;;;;;;;5062497;28;20418;-31
2021/12/18 00:25:05;;;;;;;7.88;6.30;;;;;;;;;;5061664;28;20028;-32
2021/12/18 00:27:30;;;;;;;8.75;6.43;;;;;;;;;;5061759;28;20028;-30
2021/12/18 00:29:56;;;;;;;7.78;5.97;;;;;;;;;;5061519;28;20625;-31
2021/12/18 00:32:21;;;;;;;7.72;6.50;;;;;;;;;;5065012;28;20020;-32
2021/12/18 00:34:47;;;;;;;7.95;6.63;;;;;;;;;;5082431;28;20127;-28
2021/12/18 00:37:12;;;;;;;7.13;5.72;;;;;;;;;;5082786;28;20027;-29
2021/12/18 00:39:45;;;;;;;7.68;5.95;;;;;;;;;;5082633;28;20024;-33
2021/12/18 00:45:07;;;;;;;8.13;5.32;;;;;;;;;;5068132;28;19926;-31
2021/12/18 00:47:33;;;;;;;7.13;5.28;;;;;;;;;;5082665;28;20538;-30
2021/12/18 00:49:58;;;;;;;7.13;5.43;;;;;;;;;;5082379;28;20039;-31
2021/12/18 00:52:24;;;;;;;6.40;4.90;;;;;;;;;;5082270;28;20025;-32
2021/12/18 00:54:50;;;;;;;6.00;4.88;;;;;;;;;;5068632;28;20067;-30
2021/12/18 00:57:16;;;;;;;5.43;4.53;;;;;;;;;;5062422;28;20037;-31
2021/12/18 00:59:41;;;;;;;6.00;4.45;;;;;;;;;;5062415;28;20025;-33
2021/12/18 01:02:07;;;;;;;6.55;4.35;;;;;;;;;;5062298;28;20070;-31
2021/12/18 01:04:33;;;;;;;6.53;4.90;;;;;;;;;;5062483;28;20063;-29
2021/12/18 01:06:58;;;;;;;5.38;4.47;;;;;;;;;;5062022;28;20036;-30
2021/12/18 01:09:40;;;;;;;5.03;3.88;;;;;;;;;;5062667;28;20123;-31
2021/12/18 01:12:07;;;;;;;3.78;3.15;;;;;;;;;;5062028;28;20040;-29
2021/12/18 01:14:49;;;;;;;4.93;3.80;;;;;;;;;;5063144;28;20033;-31
2021/12/18 01:25:09;;;;;;;4.55;3.10;;;;;;;;;;5062533;28;20043;-28
2021/12/18 01:27:35;;;;;;;4.28;2.88;;;;;;;;;;5064392;28;20481;-31
2021/12/18 01:30:01;;;;;;;4.03;3.35;;;;;;;;;;5066279;28;20101;-33
2021/12/18 01:32:28;;;;;;;3.85;2.97;;;;;;;;;;5065547;28;20032;-32
2021/12/18 01:34:54;;;;;;;4.10;2.92;;;;;;;;;;5078828;28;20105;-33
2021/12/18 01:37:20;;;;;;;3.70;2.95;;;;;;;;;;5085916;28;20335;-30
2021/12/18 01:39:46;;;;;;;3.33;2.65;;;;;;;;;;5085706;28;20038;-31
2021/12/18 01:52:47;;;;;;;3.67;2.72;;;;;;;;;;5085475;28;20115;-32
2021/12/18 01:55:13;;;;;;;3.47;2.53;;;;;;;;;;5067750;28;20028;-32
2021/12/18 01:57:38;;;;;;;3.40;2.50;;;;;;;;;;5064601;28;20032;-30
2021/12/18 02:00:34;;;;;;;2.60;2.10;;;;;;;;;;5046808;28;20518;-29
2021/12/18 02:03:00;;;;;;;2.92;2.35;;;;;;;;;;5063048;28;20571;-31
2021/12/18 02:05:26;;;;;;;2.97;2.20;;;;;;;;;;5064261;28;20032;-30
2021/12/18 02:07:51;;;;;;;4.07;2.45;;;;;;;;;;5064841;28;20119;-33
2021/12/18 02:10:23;;;;;;;3.15;2.15;;;;;;;;;;5064883;28;20025;-34
2021/12/18 02:20:58;;;;;;;1.98;1.60;;;;;;;;;;5064859;28;20043;-31
2021/12/18 02:23:23;;;;;;;2.13;1.83;;;;;;;;;;5064590;28;20024;-29
2021/12/18 02:25:49;;;;;;;2.47;2.10;;;;;;;;;;5064695;28;20033;-32
2021/12/18 02:28:21;;;;;;;3.25;2.15;;;;;;;;;;5064920;28;20679;-36
2021/12/18 02:30:47;;;;;;;2.93;1.90;;;;;;;;;;5064629;28;20117;-29
2021/12/18 02:33:13;;;;;;;2.03;1.83;;;;;;;;;;5064500;28;20036;-30
2021/12/18 02:35:45;;;;;;;1.98;1.60;;;;;;;;;;5065132;28;20037;-31
2021/12/18 02:38:18;;;;;;;2.50;1.83;;;;;;;;;;5064211;28;20467;-28
2021/12/18 02:43:10;;;;;;;1.65;1.48;;;;;;;;;;5064542;28;20032;-30
2021/12/18 02:45:35;;;;;;;2.28;1.50;;;;;;;;;;5064535;28;20036;-30
2021/12/18 02:48:01;;;;;;;2.30;1.60;;;;;;;;;;5065114;28;20021;-29
2021/12/18 02:50:26;;;;;;;1.58;1.30;;;;;;;;;;5064675;28;20404;-28
2021/12/18 02:52:52;;;;;;;2.03;1.23;;;;;;;;;;5046522;28;20078;-29
2021/12/18 02:55:17;;;;;;;1.92;1.45;;;;;;;;;;5064383;28;20086;-29
2021/12/18 02:57:43;;;;;;;1.67;1.30;;;;;;;;;;5064562;28;20017;-33
2021/12/18 03:00:09;;;;;;;2.30;1.60;;;;;;;;;;5065061;28;20066;-28
2021/12/18 03:02:40;;;;;;;1.92;1.45;;;;;;;;;;5046559;28;20032;-30
2021/12/18 03:05:09;;;;;;;2.50;1.70;;;;;;;;;;5064393;28;20044;-29
2021/12/18 03:07:34;;;;;;;1.98;1.33;;;;;;;;;;5082743;28;20035;-29
2021/12/18 03:23:37;;;;;;;1.60;1.30;;;;;;;;;;5083662;28;20086;-30
2021/12/18 03:26:03;;;;;;;1.58;1.20;;;;;;;;;;5083168;28;20036;-29
2021/12/18 03:28:29;;;;;;;1.42;1.00;;;;;;;;;;5083825;28;20036;-35
2021/12/18 03:30:55;;;;;;;1.85;1.23;;;;;;;;;;5083801;28;20040;-27
2021/12/18 03:33:21;;;;;;;1.77;1.35;;;;;;;;;;5082488;28;20044;-28
2021/12/18 03:35:47;;;;;;;3.22;1.30;;;;;;;;;;5083786;28;20188;-29
2021/12/18 03:38:12;;;;;;;1.40;1.05;;;;;;;;;;5083890;28;20511;-31
2021/12/18 03:40:38;;;;;;;2.47;1.85;;;;;;;;;;5082355;28;20626;-33
2021/12/18 03:43:04;;;;;;;1.60;1.30;;;;;;;;;;5083180;28;20141;-29
2021/12/18 03:45:29;;;;;;;2.08;1.52;;;;;;;;;;5083404;28;20020;-34
2021/12/18 03:47:55;;;;;;;2.00;1.48;;;;;;;;;;5083353;28;20084;-29
2021/12/18 03:50:20;;;;;;;1.20;1.00;;;;;;;;;;5082793;28;20024;-34
2021/12/18 03:52:46;;;;;;;1.90;1.30;;;;;;;;;;5083067;28;20028;-31
2021/12/18 03:55:11;;;;;;;1.30;1.13;;;;;;;;;;5066463;28;20450;-29
2021/12/18 03:57:37;;;;;;;1.83;1.00;;;;;;;;;;5063150;28;20028;-31
2021/12/18 04:00:04;;;;;;;3.13;1.13;;;;;;;;;;5083992;28;20115;-29
2021/12/18 04:02:30;;;;;;;1.75;1.30;;;;;;;;;;5101173;28;20027;-32
2021/12/18 04:04:55;;;;;;;2.30;1.40;;;;;;;;;;5103128;28;20031;-30
2021/12/18 04:07:21;;;;;;;1.95;1.13;;;;;;;;;;5103130;28;20032;-31
2021/12/18 04:09:49;;;;;;;1.52;1.10;;;;;;;;;;5103532;28;20035;-30
2021/12/18 04:12:15;;;;;;;1.63;1.13;;;;;;;;;;5103299;28;20513;-31
2021/12/18 04:14:41;;;;;;;2.15;1.20;;;;;;;;;;5103386;28;20107;-30
2021/12/18 04:17:07;;;;;;;1.40;1.10;;;;;;;;;;5103332;28;20494;-32
2021/12/18 04:19:33;;;;;;;1.17;0.88;;;;;;;;;;5103614;28;20027;-32
2021/12/18 04:21:58;;;;;;;1.83;1.10;;;;;;;;;;5103781;28;20046;-31
2021/12/18 04:24:24;;;;;;;1.88;1.33;;;;;;;;;;5103268;28;20555;-34
2021/12/18 04:26:49;;;;;;;1.45;1.02;;;;;;;;;;5102811;28;20038;-32
2021/12/18 04:29:15;;;;;;;1.90;1.10;;;;;;;;;;5103115;28;20561;-31
2021/12/18 04:31:40;;;;;;;1.88;1.40;;;;;;;;;;5087463;28;20107;-30
2021/12/18 04:34:06;;;;;;;1.80;1.35;;;;;;;;;;5083826;28;20035;-28
2021/12/18 04:36:32;;;;;;;1.63;1.05;;;;;;;;;;5066189;28;20486;-28
2021/12/18 04:38:57;;;;;;;3.10;1.70;;;;;;;;;;5083262;28;20089;-32
2021/12/18 04:41:35;;;;;;;1.77;1.05;;;;;;;;;;5082953;28;20028;-34
2021/12/18 04:44:01;;;;;;;1.20;1.00;;;;;;;;;;5083248;28;20491;-31
2021/12/18 04:46:26;;;;;;;1.50;1.17;;;;;;;;;;5082652;28;20047;-31
2021/12/18 04:48:52;;;;;;;2.03;1.30;;;;;;;;;;5071420;28;20028;-32
2021/12/18 04:51:17;;;;;;;1.63;1.52;;;;;;;;;;5062477;28;20028;-32
2021/12/18 04:53:43;;;;;;;2.17;1.10;;;;;;;;;;5066178;28;20107;-32
2021/12/18 04:56:08;;;;;;;2.95;1.40;;;;;;;;;;5082571;28;20031;-27
2021/12/18 04:58:34;;;;;;;1.52;1.08;;;;;;;;;;5082592;28;20058;-29
2021/12/18 05:00:59;;;;;;;1.58;1.08;;;;;;;;;;5082424;28;20440;-29
2021/12/18 05:03:25;;;;;;;2.42;1.45;;;;;;;;;;5085367;28;20114;-29
2021/12/18 05:05:50;;;;;;;1.88;1.27;;;;;;;;;;5086183;28;20085;-30
2021/12/18 05:08:16;;;;;;;1.80;1.33;;;;;;;;;;5086550;28;20028;-30
2021/12/18 05:10:41;;;;;;;2.38;1.42;;;;;;;;;;5086522;28;20028;-29
2021/12/18 05:13:07;;;;;;;1.70;1.10;;;;;;;;;;5086597;28;20031;-30
2021/12/18 05:15:33;;;;;;;2.35;1.30;;;;;;;;;;5086709;28;20634;-31
2021/12/18 05:17:59;;;;;;;1.45;1.20;;;;;;;;;;5086350;28;20039;-32
2021/12/18 05:20:24;;;;;;;1.40;1.02;;;;;;;;;;5085742;28;20024;-31
2021/12/18 05:22:50;;;;;;;1.90;1.02;;;;;;;;;;5086455;28;20121;-31
2021/12/18 05:25:16;;;;;;;1.65;1.13;;;;;;;;;;5086442;28;20429;-32
2021/12/18 05:27:41;;;;;;;3.03;0.93;;;;;;;;;;5088797;28;20378;-33
2021/12/18 05:30:08;;;;;;;1.23;1.10;;;;;;;;;;5094997;28;20063;-28
2021/12/18 05:32:34;;;;;;;3.33;1.10;;;;;;;;;;5096601;28;20059;-32
2021/12/18 05:34:59;;;;;;;1.27;0.90;;;;;;;;;;5085937;28;20063;-30
2021/12/18 05:39:50;;;;;;;1.45;1.00;;;;;;;;;;5085695;28;20028;-32
2021/12/18 05:42:16;;;;;;;1.45;1.00;;;;;;;;;;5085805;28;20048;-29
2021/12/18 05:44:42;;;;;;;1.75;1.30;;;;;;;;;;5085538;28;20031;-31
2021/12/18 05:47:07;;;;;;;1.73;1.13;;;;;;;;;;5085058;28;20031;-32
2021/12/18 05:49:33;;;;;;;1.42;1.00;;;;;;;;;;5086048;28;20062;-31
2021/12/18 05:51:58;;;;;;;1.50;0.98;;;;;;;;;;5085511;28;20048;-29
2021/12/18 05:54:24;;;;;;;1.58;1.15;;;;;;;;;;5085627;28;20543;-29
2021/12/18 05:56:49;;;;;;;1.17;1.00;;;;;;;;;;5085714;28;20403;-28
2021/12/18 05:59:15;;;;;;;2.13;1.23;;;;;;;;;;5085748;28;20028;-32
2021/12/18 06:01:41;;;;;;;1.58;1.08;;;;;;;;;;5085875;28;20069;-28
2021/12/18 06:04:07;;;;;;;1.08;0.93;;;;;;;;;;5068437;28;20036;-32
2021/12/18 06:06:33;;;;;;;1.55;1.10;;;;;;;;;;5064779;28;20051;-34
2021/12/18 06:08:58;;;;;;;1.55;1.15;;;;;;;;;;5065638;28;20501;-31
2021/12/18 06:11:27;;;;;;;2.78;1.33;;;;;;;;;;5065097;28;20028;-30
2021/12/18 06:13:52;;;;;;;3.53;1.30;;;;;;;;;;5083718;28;20039;-29
2021/12/18 06:16:18;;;;;;;2.10;1.30;;;;;;;;;;5085512;28;20055;-31
2021/12/18 06:18:44;;;;;;;2.83;1.30;;;;;;;;;;5085639;28;20051;-29
2021/12/18 06:21:13;;;;;;;2.53;1.50;;;;;;;;;;5084569;28;20523;-33
2021/12/18 06:23:39;;;;;;;2.95;1.52;;;;;;;;;;5085454;28;20036;-31
2021/12/18 06:26:05;;;;;;;2.28;1.50;;;;;;;;;;5085124;28;20124;-30
2021/12/18 06:28:30;;;;;;;3.50;1.60;;;;;;;;;;5085640;28;20032;-30
2021/12/18 06:30:56;;;;;;;2.05;1.52;;;;;;;;;;5085508;28;20044;-28
2021/12/18 06:33:21;;;;;;;1.75;1.45;;;;;;;;;;5081793;28;20039;-32
2021/12/18 06:35:47;;;;;;;2.55;1.48;;;;;;;;;;5064889;28;20071;-30
2021/12/18 06:38:12;;;;;;;2.60;1.80;;;;;;;;;;5064573;28;20499;-29
2021/12/18 06:40:38;;;;;;;7.55;2.22;;;;;;;;;;5076275;28;20039;-30
2021/12/18 06:43:03;;;;;;;3.80;1.98;;;;;;;;;;5084882;28;20024;-31
2021/12/18 06:45:29;;;;;;;3.28;1.50;;;;;;;;;;5084554;28;20540;-27
2021/12/18 06:47:55;;;;;;;9.50;2.03;;;;;;;;;;5084522;28;20028;-28
2021/12/18 06:50:21;;;;;;;6.40;1.88;;;;;;;;;;5084680;28;20497;-31
2021/12/18 06:52:47;;;;;;;4.45;2.00;;;;;;;;;;5084593;28;20024;-31
2021/12/18 06:55:12;;;;;;;3.28;2.20;;;;;;;;;;5067909;28;20085;-34
2021/12/18 06:57:38;;;;;;;3.15;1.80;;;;;;;;;;5064013;28;20062;-32
2021/12/18 07:00:08;;;;;;;2.28;1.55;;;;;;;;;;5071168;28;20557;-30
2021/12/18 07:02:34;;;;;;;2.53;1.67;;;;;;;;;;5084093;28;20028;-30
2021/12/18 07:04:59;;;;;;;4.45;1.75;;;;;;;;;;5084014;28;20046;-30
2021/12/18 07:07:24;;;;;;;2.17;1.52;;;;;;;;;;5083884;28;20024;-30
2021/12/18 07:09:50;;;;;;;4.47;2.67;;;;;;;;;;5076540;28;20181;-31
2021/12/18 07:12:15;;;;;;;5.78;1.88;;;;;;;;;;5085213;28;20024;-32
2021/12/18 07:14:41;;;;;;;5.20;1.70;;;;;;;;;;5071387;28;20482;-28
2021/12/18 07:17:07;;;;;;;2.53;1.75;;;;;;;;;;5074386;28;20016;-29
2021/12/18 07:19:32;;;;;;;3.05;1.60;;;;;;;;;;5083467;28;20028;-33
2021/12/18 07:21:58;;;;;;;3.90;1.63;;;;;;;;;;5083198;28;20031;-30
2021/12/18 07:24:23;;;;;;;4.50;2.05;;;;;;;;;;5082286;28;20028;-31
2021/12/18 07:26:49;;;;;;;2.17;1.60;;;;;;;;;;5083058;28;20032;-32
2021/12/18 07:29:14;;;;;;;4.22;1.70;;;;;;;;;;5082360;28;20497;-30
2021/12/18 07:31:40;;;;;;;2.38;1.65;;;;;;;;;;5082735;28;20020;-31
2021/12/18 07:34:05;;;;;;;3.63;1.75;;;;;;;;;;5083290;28;20035;-28
2021/12/18 07:36:31;;;;;;;3.78;1.52;;;;;;;;;;5083267;28;20136;-31
2021/12/18 07:38:56;;;;;;;2.00;1.50;;;;;;;;;;5082978;28;20024;-28
2021/12/18 07:41:22;;;;;;;2.58;1.38;;;;;;;;;;5082662;28;20024;-33
2021/12/18 07:43:47;;;;;;;4.75;1.65;;;;;;;;;;5068279;28;20025;-30
2021/12/18 07:46:13;;;;;;;3.28;1.45;;;;;;;;;;5062966;28;20035;-35
2021/12/18 07:48:39;;;;;;;2.20;1.70;;;;;;;;;;5063782;28;20046;-28
2021/12/18 07:51:04;;;;;;;2.50;1.70;;;;;;;;;;5062784;28;20078;-33
2021/12/18 07:53:30;;;;;;;1.75;1.50;;;;;;;;;;5063695;28;20035;-31
2021/12/18 07:55:55;;;;;;;2.28;1.35;;;;;;;;;;5063751;28;20502;-35
2021/12/18 07:58:21;;;;;;;4.55;1.77;;;;;;;;;;5063662;28;20029;-29
2021/12/18 08:00:46;;;;;;;3.47;1.85;;;;;;;;;;5077041;28;20086;-31
2021/12/18 08:03:12;;;;;;;3.08;1.80;;;;;;;;;;5083298;28;20775;-28
2021/12/18 08:05:37;;;;;;;3.28;1.65;;;;;;;;;;5083612;28;20031;-28
2021/12/18 08:08:03;;;;;;;9.80;6.93;;;;;;;;;;5082956;28;20028;-34
2021/12/18 08:10:29;;;;;;;17.75;10.80;;;;;;;;;;5083123;28;20024;-30
2021/12/18 08:12:54;;;;;;;13.30;12.10;;;;;;;;;;5082885;28;20024;-32
2021/12/18 08:15:20;;;;;;;11.27;10.18;;;;;;;;;;5081952;28;20043;-32
2021/12/18 08:17:45;;;;;;;11.85;10.75;;;;;;;;;;5083038;28;20114;-28
2021/12/18 08:20:11;;;;;;;10.10;9.20;;;;;;;;;;5083032;28;20164;-30
2021/12/18 08:22:37;;;;;;;9.13;8.32;;;;;;;;;;5082958;28;20187;-30
2021/12/18 08:25:03;;;;;;;10.27;7.43;;;;;;;;;;5083022;28;20059;-32
2021/12/18 08:27:29;;;;;;;8.48;7.03;;;;;;;;;;5082645;28;20036;-31
2021/12/18 08:29:55;;;;;;;8.18;7.00;;;;;;;;;;5082362;28;20249;-30
2021/12/18 08:32:20;;;;;;;9.32;5.63;;;;;;;;;;5079657;28;20579;-28
2021/12/18 08:34:46;;;;;;;6.03;5.40;;;;;;;;;;5062597;28;20036;-31
2021/12/18 08:37:11;;;;;;;5.20;4.75;;;;;;;;;;5080025;28;20036;-31
2021/12/18 08:39:37;;;;;;;7.07;4.68;;;;;;;;;;5071510;28;20025;-32
2021/12/18 08:42:05;;;;;;;8.25;5.07;;;;;;;;;;5080852;28;20028;-31
2021/12/18 08:44:33;;;;;;;4.82;4.00;;;;;;;;;;5072760;28;20522;-34
2021/12/18 08:46:59;;;;;;;6.75;3.88;;;;;;;;;;5062551;28;20035;-29
2021/12/18 08:49:25;;;;;;;7.28;3.90;;;;;;;;;;5062243;28;20443;-33
2021/12/18 08:51:51;;;;;;;8.30;4.30;;;;;;;;;;5062428;28;20029;-35
2021/12/18 08:54:16;;;;;;;8.25;3.70;;;;;;;;;;5062352;28;20043;-32
2021/12/18 08:56:42;;;;;;;10.15;3.38;;;;;;;;;;5062432;28;20064;-29
2021/12/18 08:59:07;;;;;;;9.07;3.40;;;;;;;;;;5079070;28;20032;-32
2021/12/18 09:01:33;;;;;;;7.80;3.28;;;;;;;;;;5072824;28;20473;-29
2021/12/18 09:03:58;;;;;;;7.40;3.00;;;;;;;;;;5062356;28;20446;-30
2021/12/18 09:06:24;;;;;;;10.02;3.58;;;;;;;;;;5081159;28;20071;-32
2021/12/18 09:08:50;;;;;;;4.80;3.42;;;;;;;;;;5080036;28;20035;-31
2021/12/18 09:11:16;;;;;;;10.30;3.20;;;;;;;;;;5072335;28;20039;-32
2021/12/18 09:13:41;;;;;;;5.85;3.42;;;;;;;;;;5082563;28;20032;-32
2021/12/18 09:16:07;;;;;;;11.32;3.67;;;;;;;;;;5070966;28;20031;-29
2021/12/18 09:18:32;;;;;;;4.95;3.42;;;;;;;;;;5082218;28;20032;-33
2021/12/18 09:20:58;;;;;;;10.07;3.70;;;;;;;;;;5068179;28;20032;-29
2021/12/18 09:23:23;;;;;;;13.10;3.38;;;;;;;;;;5082184;28;20061;-31
2021/12/18 09:25:49;;;;;;;6.25;3.40;;;;;;;;;;5081662;28;20567;-29
2021/12/18 09:28:15;;;;;;;6.18;3.45;;;;;;;;;;5081820;28;20119;-29
2021/12/18 09:30:40;;;;;;;5.72;3.03;;;;;;;;;;5081965;28;20119;-29
2021/12/18 09:33:07;;;;;;;11.63;3.72;;;;;;;;;;5078194;28;20028;-34
2021/12/18 09:35:32;;;;;;;9.23;3.92;;;;;;;;;;5061778;28;20070;-27
2021/12/18 09:37:58;;;;;;;5.05;3.28;;;;;;;;;;5060791;28;20028;-30
2021/12/18 09:40:24;;;;;;;7.68;3.67;;;;;;;;;;5061583;28;20020;-30
2021/12/18 09:42:49;;;;;;;7.85;3.80;;;;;;;;;;5061090;28;20048;-30
2021/12/18 09:45:15;;;;;;;4.95;2.85;;;;;;;;;;5061862;28;20033;-31
2021/12/18 09:47:41;;;;;;;4.53;3.28;;;;;;;;;;5062480;28;20029;-28
2021/12/18 09:50:07;;;;;;;8.05;3.28;;;;;;;;;;5065076;28;20036;-33
2021/12/18 09:52:34;;;;;;;5.65;3.10;;;;;;;;;;5065466;28;20028;-29
2021/12/18 09:55:00;;;;;;;8.35;3.50;;;;;;;;;;5065541;28;20028;-34
2021/12/18 09:57:26;;;;;;;5.78;3.67;;;;;;;;;;5065438;28;20032;-29
2021/12/18 09:59:51;;;;;;;5.00;3.08;;;;;;;;;;5065007;28;20032;-31
2021/12/18 10:02:17;;;;;;;4.28;3.25;;;;;;;;;;5065315;28;20033;-28
2021/12/18 10:04:43;;;;;;;5.72;3.05;;;;;;;;;;5065237;28;20056;-29
2021/12/18 10:07:16;;;;;;;4.75;3.22;;;;;;;;;;5065212;28;20480;-29
2021/12/18 10:09:41;;;;;;;5.90;3.45;;;;;;;;;;5065507;28;20475;-30
2021/12/18 10:12:23;;;;;;;5.63;3.03;;;;;;;;;;5065281;28;20082;-29
2021/12/18 10:14:53;;;;;;;5.45;3.35;;;;;;;;;;5065575;28;20928;-30
2021/12/18 10:17:31;;;;;;;6.13;3.40;;;;;;;;;;5065410;28;20025;-30
2021/12/18 10:20:09;;;;;;;5.13;3.30;;;;;;;;;;5065458;28;20575;-28
2021/12/18 10:22:35;;;;;;;6.43;3.25;;;;;;;;;;5065257;28;20461;-31
2021/12/18 10:25:06;;;;;;;5.95;3.38;;;;;;;;;;5065839;28;20036;-31
2021/12/18 10:27:31;;;;;;;5.20;3.72;;;;;;;;;;5085654;28;20020;-32
2021/12/18 10:30:12;;;;;;;9.48;3.95;;;;;;;;;;5085168;28;20139;-29
2021/12/18 10:32:37;;;;;;;5.78;4.05;;;;;;;;;;5062123;28;20047;-32
2021/12/18 10:35:04;;;;;;;6.53;3.90;;;;;;;;;;5064371;28;20055;-29
2021/12/18 10:37:33;;;;;;;6.78;3.85;;;;;;;;;;5063915;28;20032;-29
2021/12/18 10:40:08;;;;;;;5.55;3.65;;;;;;;;;;5064303;28;20028;-31
2021/12/18 10:42:42;;;;;;;5.30;3.75;;;;;;;;;;5064575;28;20020;-31
2021/12/18 10:45:12;;;;;;;5.72;4.03;;;;;;;;;;5063962;28;20506;-33
2021/12/18 10:47:51;;;;;;;7.85;4.35;;;;;;;;;;5064670;28;20040;-32
2021/12/18 10:50:50;;;;;;;7.70;4.70;;;;;;;;;;5063856;28;20060;-31
2021/12/18 10:53:17;;;;;;;5.53;4.05;;;;;;;;;;5048268;28;20517;-31
2021/12/18 10:55:45;;;;;;;6.45;4.57;;;;;;;;;;5063846;28;20449;-31
2021/12/18 10:58:14;;;;;;;7.50;4.45;;;;;;;;;;5045785;28;20422;-29
2021/12/18 11:00:47;;;;;;;7.75;4.70;;;;;;;;;;5063136;28;20029;-30
2021/12/18 11:03:18;;;;;;;6.75;4.93;;;;;;;;;;5063938;28;20060;-30
2021/12/18 11:05:43;;;;;;;7.57;4.38;;;;;;;;;;5063592;28;20764;-30
2021/12/18 11:08:10;;;;;;;7.03;4.55;;;;;;;;;;5063786;28;20028;-30
2021/12/18 11:10:43;;;;;;;6.20;4.22;;;;;;;;;;5063111;28;20803;-28
2021/12/18 11:15:54;;;;;;;7.10;5.00;;;;;;;;;;5064051;28;20128;-32
2021/12/18 11:18:19;;;;;;;7.07;4.55;;;;;;;;;;5064115;28;20107;-32
2021/12/18 11:20:51;;;;;;;6.22;4.30;;;;;;;;;;5063752;28;20107;-29
2021/12/18 11:23:22;;;;;;;7.88;4.90;;;;;;;;;;5062997;28;20032;-29
2021/12/18 11:25:48;;;;;;;9.38;5.07;;;;;;;;;;5045544;28;20056;-32
2021/12/18 11:28:14;;;;;;;5.97;4.10;;;;;;;;;;5044836;28;20537;-28
2021/12/18 11:30:39;;;;;;;8.55;4.80;;;;;;;;;;5045341;28;20056;-31
2021/12/18 11:33:05;;;;;;;7.68;5.18;;;;;;;;;;5062776;28;20490;-32
2021/12/18 11:35:30;;;;;;;6.90;4.68;;;;;;;;;;5063024;28;20067;-28
2021/12/18 11:38:07;;;;;;;5.95;4.53;;;;;;;;;;5063314;28;20033;-30
2021/12/18 11:40:34;;;;;;;8.73;5.03;;;;;;;;;;5046174;28;20040;-32
2021/12/18 11:43:03;;;;;;;7.38;4.60;;;;;;;;;;5045532;28;20031;-28
2021/12/18 11:45:33;;;;;;;7.03;4.90;;;;;;;;;;5045444;28;20067;-32
2021/12/18 11:48:00;;;;;;;5.93;4.15;;;;;;;;;;5062773;28;20109;-30
2021/12/18 11:50:31;;;;;;;6.95;4.68;;;;;;;;;;5061872;28;20028;-33
2021/12/18 11:53:00;;;;;;;6.25;4.40;;;;;;;;;;5063364;28;20024;-32
2021/12/18 11:55:33;;;;;;;7.97;4.60;;;;;;;;;;5063123;28;20721;-29
2021/12/18 11:58:03;;;;;;;6.85;4.63;;;;;;;;;;5063932;28;20020;-28
2021/12/18 12:00:43;;;;;;;6.60;4.47;;;;;;;;;;5063762;28;20024;-29
2021/12/18 12:03:09;;;;;;;9.93;5.28;;;;;;;;;;5063372;28;20085;-32
2021/12/18 12:05:37;;;;;;;7.53;4.45;;;;;;;;;;5063490;28;20093;-32
2021/12/18 12:08:22;;;;;;;8.00;4.60;;;;;;;;;;5063128;28;20059;-34
2021/12/18 12:11:15;;;;;;;7.20;4.60;;;;;;;;;;5062761;28;20032;-29
2021/12/18 12:14:16;;;;;;;6.32;3.80;;;;;;;;;;5082828;28;20047;-28
2021/12/18 12:16:44;;;;;;;5.05;3.63;;;;;;;;;;5083147;28;20521;-29
2021/12/18 12:19:20;;;;;;;8.07;4.60;;;;;;;;;;5083136;28;20036;-29
2021/12/18 12:21:53;;;;;;;6.25;4.03;;;;;;;;;;5082889;28;20509;-28
2021/12/18 12:24:19;;;;;;;;;;;;;;;;;;5083320;28;20028;-33
2021/12/18 12:26:45;;;;;;;8.52;4.78;;;;;;;;;;5071824;28;19912;-32
2021/12/18 12:29:13;;;;;;;5.10;3.78;;;;;;;;;;5062165;28;20380;-33
2021/12/18 12:31:52;;;;;;;4.60;3.67;;;;;;;;;;5062641;28;20376;-31
2021/12/18 12:34:25;;;;;;;5.70;3.90;;;;;;;;;;5046044;28;20085;-34
2021/12/18 12:36:57;;;;;;;5.85;3.97;;;;;;;;;;5062255;28;20048;-30
2021/12/18 12:39:26;;;;;;;10.27;3.73;;;;;;;;;;5061599;28;20082;-28
2021/12/18 12:41:52;;;;;;;6.07;3.63;;;;;;;;;;5044145;28;20407;-29
2021/12/18 12:44:32;;;;;;;7.95;4.10;;;;;;;;;;5062149;28;20029;-29
2021/12/18 12:47:24;;;;;;;4.88;3.42;;;;;;;;;;5062279;28;20033;-33
2021/12/18 12:50:00;;;;;;;7.30;4.07;;;;;;;;;;5062360;28;20043;-31
2021/12/18 12:52:27;;;;;;;7.75;5.47;;;;;;;;;;5062589;28;20104;-31
2021/12/18 12:55:04;;;;;;;12.15;7.18;;;;;;;;;;5062496;28;20029;-30
2021/12/18 12:57:31;;;;;;;20.20;11.45;;;;;;;;;;5062403;28;20456;-28
2021/12/18 13:00:06;;;;;;;35.22;21.75;;;;;;;;;;5062444;28;20036;-30
2021/12/18 13:03:09;;;;;;;43.80;25.20;;;;;;;;;;5062615;28;20241;-31
2021/12/18 13:05:47;;;;;;;41.28;24.35;;;;;;;;;;5037743;28;20041;-28
2021/12/18 13:08:12;;;;;;;40.20;24.15;;;;;;;;;;5062980;28;20570;-31
2021/12/18 13:10:38;;;;;;;46.72;24.95;;;;;;;;;;5063282;28;20029;-30
2021/12/18 13:13:12;;;;;;;41.78;23.25;;;;;;;;;;5062795;28;20537;-29
2021/12/18 13:15:46;;;;;;;;;;;;;;;;;;5063493;28;20410;-31
2021/12/18 13:18:12;;;;;;;38.65;21.83;;;;;;;;;;5062243;28;19923;-30
2021/12/18 13:20:45;;;;;;;31.45;19.08;;;;;;;;;;5062404;28;20021;-33
2021/12/18 13:23:17;;;;;;;32.08;19.02;;;;;;;;;;5063223;28;20499;-29
2021/12/18 13:26:01;;;;;;;30.95;17.90;;;;;;;;;;5065981;28;20064;-32
2021/12/18 13:28:26;;;;;;;28.60;17.02;;;;;;;;;;5066495;28;20029;-27
2021/12/18 13:30:54;;;;;;;31.88;17.85;;;;;;;;;;5065767;28;20131;-30
2021/12/18 13:33:29;;;;;;;25.60;16.17;;;;;;;;;;5064718;28;20025;-28
2021/12/18 13:35:59;;;;;;;27.25;15.77;;;;;;;;;;5065516;28;20040;-29
2021/12/18 13:38:27;;;;;;;23.17;13.68;;;;;;;;;;5065494;28;20025;-30
2021/12/18 13:40:53;;;;;;;23.52;14.25;;;;;;;;;;5066067;28;20024;-33
2021/12/18 13:43:21;;;;;;;22.13;13.57;;;;;;;;;;5065875;28;20039;-31
2021/12/18 13:46:12;;;;;;;22.40;14.02;;;;;;;;;;5065456;28;20570;-30
2021/12/18 13:48:42;;;;;;;20.70;11.52;;;;;;;;;;5065370;28;20064;-27
2021/12/18 13:51:12;;;;;;;24.38;12.15;;;;;;;;;;5071344;28;20036;-28
2021/12/18 13:54:10;;;;;;;22.25;11.77;;;;;;;;;;5082973;28;20028;-28
2021/12/18 13:56:43;;;;;;;17.20;10.93;;;;;;;;;;5020025;28;20519;-31
2021/12/18 13:59:15;;;;;;;19.10;10.05;;;;;;;;;;5046887;28;20120;-33
2021/12/18 14:01:41;;;;;;;22.02;11.32;;;;;;;;;;5065537;28;20089;-34
2021/12/18 14:04:13;;;;;;;18.80;10.93;;;;;;;;;;5065101;28;20087;-29
2021/12/18 14:06:41;;;;;;;19.80;10.73;;;;;;;;;;5064912;28;20113;-34
2021/12/18 14:09:13;;;;;;;19.13;10.75;;;;;;;;;;5064984;28;20043;-35
2021/12/18 14:11:43;;;;;;;18.13;11.02;;;;;;;;;;5065605;28;20039;-33
2021/12/18 14:14:10;;;;;;;17.45;10.93;;;;;;;;;;5047323;28;20040;-36
2021/12/18 14:16:36;;;;;;;17.25;11.07;;;;;;;;;;5064695;28;20500;-30
2021/12/18 14:19:10;;;;;;;20.00;9.73;;;;;;;;;;5047118;28;20124;-29
2021/12/18 14:21:43;;;;;;;17.40;9.65;;;;;;;;;;5072954;28;20035;-29
2021/12/18 14:24:10;;;;;;;;;;;;;;;;;;5085603;28;20417;-34
2021/12/18 14:26:35;;;;;;;14.98;9.32;;;;;;;;;;5085203;28;19995;-29
2021/12/18 14:29:29;;;;;;;14.50;9.18;;;;;;;;;;5085093;28;20040;-33
2021/12/18 14:31:55;;;;;;;17.02;8.80;;;;;;;;;;5082996;28;20044;-29
2021/12/18 14:34:28;;;;;;;19.55;10.35;;;;;;;;;;5065485;28;20040;-31
2021/12/18 14:36:57;;;;;;;;;;;;;;;;;;5066298;28;20074;-28
2021/12/18 14:39:41;;;;;;;19.30;10.15;;;;;;;;;;5065042;28;20409;-29
2021/12/18 14:42:22;;;;;;;17.50;10.57;;;;;;;;;;5047089;28;20426;-29
2021/12/18 14:44:56;;;;;;;20.60;9.93;;;;;;;;;;5064694;28;20033;-33
2021/12/18 14:47:25;;;;;;;18.05;9.23;;;;;;;;;;5064893;28;20039;-31
2021/12/18 14:49:55;;;;;;;16.60;9.38;;;;;;;;;;5064894;28;20115;-30
2021/12/18 14:52:21;;;;;;;18.42;9.75;;;;;;;;;;5064471;28;20032;-31
2021/12/18 14:54:48;;;;;;;18.48;9.07;;;;;;;;;;5064651;28;20028;-30
2021/12/18 14:57:24;;;;;;;14.75;8.82;;;;;;;;;;5064639;28;20122;-33
2021/12/18 15:00:21;;;;;;;20.77;8.70;;;;;;;;;;5064029;28;20037;-32
2021/12/18 15:02:58;;;;;;;18.35;8.73;;;;;;;;;;5064305;28;20122;-30
2021/12/18 15:05:28;;;;;;;19.50;8.50;;;;;;;;;;5063964;28;20060;-31
2021/12/18 15:08:06;;;;;;;12.90;8.18;;;;;;;;;;5064001;28;20123;-29
2021/12/18 15:10:57;;;;;;;15.20;8.02;;;;;;;;;;5064183;28;20108;-32
2021/12/18 15:13:25;;;;;;;12.88;7.68;;;;;;;;;;5064058;28;20039;-33
2021/12/18 15:16:13;;;;;;;21.23;7.90;;;;;;;;;;5063315;28;20487;-30
2021/12/18 15:18:40;;;;;;;16.80;8.07;;;;;;;;;;5063789;28;20036;-32
2021/12/18 15:21:05;;;;;;;15.85;7.28;;;;;;;;;;5066404;28;20085;-31
2021/12/18 15:23:31;;;;;;;13.95;8.10;;;;;;;;;;5083226;28;20024;-28
2021/12/18 15:25:57;;;;;;;13.82;7.65;;;;;;;;;;5084384;28;20043;-33
2021/12/18 15:28:22;;;;;;;14.48;7.07;;;;;;;;;;5084138;28;20039;-31
2021/12/18 15:30:48;;;;;;;14.48;6.68;;;;;;;;;;5083137;28;20063;-31
2021/12/18 15:33:13;;;;;;;11.60;7.13;;;;;;;;;;5083434;28;20039;-33
2021/12/18 15:35:39;;;;;;;10.93;6.60;;;;;;;;;;5084107;28;20032;-30
2021/12/18 15:38:04;;;;;;;13.00;6.82;;;;;;;;;;5074746;28;20039;-29